Time;durP1;ratioP1;P1;durP2;ratioP2;P2;SDS_P1;SDS_P2;PMS_P1;PMS_P2;Temp;Humidity;BMP_temperature;BMP_pressure;BME280_temperature;BME280_humidity;BME280_pressure;Samples;Min_cycle;Max_cycle;Signal;HPM_P1;HPM_P2
2023/02/18 00:01:24;;;;;;;39.60;22.27;;;7.80;99.90;;;;;;5032144;28;20025;-80
2023/02/18 00:03:51;;;;;;;30.60;20.95;;;7.80;99.90;;;;;;5032054;28;20029;-79
2023/02/18 00:06:21;;;;;;;33.08;22.15;;;7.80;99.90;;;;;;5030804;28;20103;-80
2023/02/18 00:08:47;;;;;;;43.70;27.08;;;7.80;99.90;;;;;;5030565;28;20491;-80
2023/02/18 00:11:14;;;;;;;52.30;31.17;;;7.80;99.90;;;;;;5030864;28;20471;-80
2023/02/18 00:13:40;;;;;;;47.20;27.58;;;7.70;99.90;;;;;;5030849;28;20029;-80
2023/02/18 00:16:10;;;;;;;45.60;29.35;;;7.80;99.90;;;;;;5031064;28;20025;-79
2023/02/18 00:18:37;;;;;;;44.83;29.67;;;7.70;99.90;;;;;;5030732;28;20025;-80
2023/02/18 00:21:05;;;;;;;43.80;26.92;;;7.60;99.90;;;;;;5031760;28;20063;-79
2023/02/18 00:23:31;;;;;;;38.15;25.17;;;7.60;99.90;;;;;;5031679;28;20131;-80
2023/02/18 00:26:05;;;;;;;29.58;18.48;;;7.60;99.90;;;;;;5032379;28;20478;-80
2023/02/18 00:28:31;;;;;;;26.05;17.90;;;7.60;99.90;;;;;;5031832;28;20053;-79
2023/02/18 00:30:57;;;;;;;29.35;18.02;;;7.70;99.90;;;;;;5031991;28;20432;-80
2023/02/18 00:33:23;;;;;;;25.05;16.80;;;7.60;99.90;;;;;;5030621;28;20021;-79
2023/02/18 00:35:49;;;;;;;22.83;15.35;;;7.60;99.90;;;;;;5031638;28;20032;-82
2023/02/18 00:38:15;;;;;;;16.20;11.70;;;7.50;99.90;;;;;;5031942;28;20022;-82
2023/02/18 00:40:42;;;;;;;29.08;15.90;;;7.60;99.90;;;;;;5031955;28;20037;-83
2023/02/18 00:43:08;;;;;;;20.15;10.13;;;7.60;99.90;;;;;;5031954;28;20101;-82
2023/02/18 00:45:34;;;;;;;13.80;6.97;;;7.70;99.90;;;;;;5030390;28;20029;-83
2023/02/18 00:48:00;;;;;;;19.13;9.07;;;7.70;99.90;;;;;;5031431;28;20506;-82
2023/02/18 00:50:25;;;;;;;19.83;10.30;;;7.60;99.90;;;;;;5030276;28;20143;-82
2023/02/18 00:52:51;;;;;;;5.65;3.97;;;7.60;99.90;;;;;;5031815;28;20486;-80
2023/02/18 00:55:17;;;;;;;14.02;7.32;;;7.60;99.90;;;;;;5031471;28;20463;-80
2023/02/18 00:57:42;;;;;;;5.30;3.97;;;7.60;99.90;;;;;;5030125;28;20033;-80
2023/02/18 01:00:08;;;;;;;6.47;4.00;;;7.60;99.90;;;;;;5031053;28;20030;-80
2023/02/18 01:02:34;;;;;;;10.55;5.65;;;7.50;99.90;;;;;;5028770;28;20151;-79
2023/02/18 01:05:00;;;;;;;8.25;4.38;;;7.40;99.90;;;;;;5030403;28;20263;-80
2023/02/18 01:07:25;;;;;;;6.32;3.50;;;7.30;99.90;;;;;;5029925;28;20514;-79
2023/02/18 01:09:51;;;;;;;5.40;3.28;;;7.30;99.90;;;;;;5029885;28;20033;-79
2023/02/18 01:12:17;;;;;;;6.32;3.85;;;7.20;99.90;;;;;;5030350;28;20382;-80
2023/02/18 01:14:43;;;;;;;13.07;6.75;;;7.10;99.90;;;;;;5031159;28;20028;-80
2023/02/18 01:17:09;;;;;;;8.45;4.85;;;7.10;99.90;;;;;;5031276;28;20025;-79
2023/02/18 01:19:34;;;;;;;3.05;2.65;;;7.10;99.90;;;;;;5031009;28;20100;-79
2023/02/18 01:22:01;;;;;;;21.90;11.25;;;7.00;99.90;;;;;;5031041;28;20360;-79
2023/02/18 01:24:26;;;;;;;5.97;3.03;;;7.00;99.90;;;;;;5031335;28;20049;-79
2023/02/18 01:26:52;;;;;;;14.55;7.97;;;6.80;99.90;;;;;;5030127;28;20064;-79
2023/02/18 01:29:18;;;;;;;12.35;6.65;;;6.80;99.90;;;;;;5030795;28;20050;-79
2023/02/18 01:31:43;;;;;;;16.08;7.82;;;6.80;99.90;;;;;;5029372;28;20113;-79
2023/02/18 01:34:09;;;;;;;20.75;11.07;;;6.80;99.90;;;;;;5031002;28;20086;-79
2023/02/18 01:36:34;;;;;;;16.02;7.32;;;6.80;99.90;;;;;;5030768;28;20025;-79
2023/02/18 01:39:00;;;;;;;9.15;5.22;;;6.70;99.90;;;;;;5030845;28;20057;-79
2023/02/18 01:41:26;;;;;;;22.05;11.10;;;6.80;99.90;;;;;;5030518;28;20089;-79
2023/02/18 01:44:19;;;;;;;12.25;6.28;;;6.80;99.90;;;;;;5030593;28;20032;-79
2023/02/18 01:46:45;;;;;;;13.23;6.40;;;6.70;99.90;;;;;;5030612;28;20028;-79
2023/02/18 01:49:15;;;;;;;13.73;7.22;;;6.60;99.90;;;;;;5030371;28;20065;-79
2023/02/18 01:51:47;;;;;;;14.77;7.22;;;6.50;99.90;;;;;;5031221;28;20026;-79
2023/02/18 01:54:21;;;;;;;3.38;1.30;;;6.50;99.90;;;;;;5029478;28;20037;-79
2023/02/18 01:57:15;;;;;;;1.60;1.50;;;6.40;99.90;;;;;;5030839;28;20026;-79
2023/02/18 01:59:43;;;;;;;2.72;2.30;;;6.40;99.90;;;;;;5026935;28;20486;-79
2023/02/18 02:02:14;;;;;;;6.38;3.20;;;6.40;99.90;;;;;;5030238;28;20047;-79
2023/02/18 02:04:40;;;;;;;2.80;1.83;;;6.40;99.90;;;;;;5030478;28;20402;-79
2023/02/18 02:07:06;;;;;;;5.32;2.60;;;6.30;99.90;;;;;;5030417;28;20030;-79
2023/02/18 02:09:33;;;;;;;4.72;2.35;;;6.30;99.90;;;;;;5030657;28;20090;-79
2023/02/18 02:12:29;;;;;;;3.75;2.30;;;6.30;99.90;;;;;;5030524;28;20026;-79
2023/02/18 02:15:04;;;;;;;3.63;1.90;;;6.30;99.90;;;;;;5028763;28;20025;-79
2023/02/18 02:17:29;;;;;;;7.78;4.22;;;6.40;99.90;;;;;;5029270;28;20060;-79
2023/02/18 02:20:10;;;;;;;22.15;9.45;;;6.40;99.90;;;;;;5030169;28;20053;-79
2023/02/18 02:23:09;;;;;;;3.92;1.58;;;6.40;99.90;;;;;;5030589;28;20072;-79
2023/02/18 02:26:12;;;;;;;3.85;2.65;;;6.30;99.90;;;;;;5030125;28;20032;-79
2023/02/18 02:28:59;;;;;;;3.63;1.50;;;6.30;99.90;;;;;;5028955;28;20057;-79
2023/02/18 02:31:59;;;;;;;1.73;1.40;;;6.20;99.90;;;;;;5029905;28;20025;-79
2023/02/18 02:34:33;;;;;;;1.13;1.00;;;6.10;99.90;;;;;;5029413;28;20037;-81
2023/02/18 02:37:15;;;;;;;7.07;3.38;;;6.10;99.90;;;;;;5018516;28;20034;-82
2023/02/18 02:39:56;;;;;;;7.88;3.40;;;6.00;99.90;;;;;;5012240;28;20037;-82
2023/02/18 02:42:26;;;;;;;6.60;2.45;;;5.90;99.90;;;;;;5009091;28;20030;-81
2023/02/18 02:45:28;;;;;;;5.85;3.78;;;5.90;99.70;;;;;;5009163;28;20059;-82
2023/02/18 02:48:09;;;;;;;3.20;2.25;;;5.90;99.90;;;;;;5010379;28;20041;-82
2023/02/18 02:50:41;;;;;;;1.13;0.90;;;6.00;96.50;;;;;;5010451;28;20367;-82
2023/02/18 02:53:14;;;;;;;12.95;4.82;;;6.00;94.70;;;;;;5009886;28;20099;-82
2023/02/18 02:55:40;;;;;;;2.20;1.88;;;6.00;92.20;;;;;;5010121;28;20471;-82
2023/02/18 02:58:05;;;;;;;5.55;3.65;;;6.00;92.60;;;;;;5009766;28;20025;-81
2023/02/18 03:00:43;;;;;;;2.60;1.63;;;5.90;93.20;;;;;;5009990;28;20026;-82
2023/02/18 03:03:14;;;;;;;2.03;1.55;;;5.90;90.50;;;;;;5008732;28;20079;-82
2023/02/18 03:05:51;;;;;;;2.00;1.80;;;5.90;89.40;;;;;;5010274;28;20029;-82
2023/02/18 03:08:44;;;;;;;3.17;1.40;;;5.80;90.30;;;;;;5008718;28;20040;-82
2023/02/18 03:11:11;;;;;;;;;;;5.80;89.30;;;;;;5008993;28;20448;-82
2023/02/18 03:14:01;;;;;;;1.02;0.90;;;5.80;84.40;;;;;;5008579;28;19906;-82
2023/02/18 03:16:52;;;;;;;3.22;1.25;;;5.80;85.00;;;;;;5010104;28;20100;-82
2023/02/18 03:19:22;;;;;;;2.05;1.80;;;5.70;82.30;;;;;;5009622;28;20071;-82
2023/02/18 03:21:56;;;;;;;2.55;1.67;;;5.80;81.00;;;;;;5009890;28;20075;-82
2023/02/18 03:24:36;;;;;;;3.05;1.60;;;5.80;80.50;;;;;;5009853;28;20022;-82
2023/02/18 03:27:21;;;;;;;4.38;1.70;;;5.70;80.50;;;;;;5012961;28;20094;-81
2023/02/18 03:30:01;;;;;;;3.60;1.65;;;5.70;81.30;;;;;;5012963;28;20050;-82
2023/02/18 03:32:30;;;;;;;2.65;2.10;;;5.60;82.20;;;;;;5012994;28;20030;-82
2023/02/18 03:35:01;;;;;;;1.65;1.40;;;5.60;82.30;;;;;;5011924;28;20547;-81
2023/02/18 03:37:30;;;;;;;7.90;4.32;;;5.50;82.70;;;;;;5013207;28;20097;-82
2023/02/18 03:40:00;;;;;;;2.97;1.23;;;5.50;83.40;;;;;;5013115;28;20052;-81
2023/02/18 03:42:27;;;;;;;3.78;1.98;;;5.40;84.80;;;;;;5012981;28;20033;-82
2023/02/18 03:44:52;;;;;;;2.90;1.90;;;5.40;84.30;;;;;;5012636;28;20036;-82
2023/02/18 03:47:18;;;;;;;101.40;47.10;;;5.40;84.90;;;;;;5012997;28;20026;-81
2023/02/18 03:49:44;;;;;;;7.55;4.15;;;5.30;86.20;;;;;;5011557;28;20034;-81
2023/02/18 03:52:10;;;;;;;4.60;2.50;;;5.30;86.60;;;;;;5013030;28;20072;-81
2023/02/18 03:54:36;;;;;;;3.47;1.58;;;5.30;86.50;;;;;;5012798;28;20037;-81
2023/02/18 03:57:01;;;;;;;6.18;3.75;;;5.30;86.70;;;;;;5011588;28;20021;-81
2023/02/18 03:59:27;;;;;;;2.03;1.35;;;5.30;85.70;;;;;;5011884;28;20022;-81
2023/02/18 04:01:53;;;;;;;2.30;2.05;;;5.30;87.00;;;;;;5012671;28;20022;-81
2023/02/18 04:04:18;;;;;;;15.13;5.68;;;5.20;88.50;;;;;;5012790;28;20109;-81
2023/02/18 04:06:44;;;;;;;4.90;2.67;;;5.20;88.20;;;;;;5012666;28;20053;-81
2023/02/18 04:09:09;;;;;;;4.15;2.20;;;5.10;87.40;;;;;;5012743;28;20038;-82
2023/02/18 04:11:39;;;;;;;3.38;1.30;;;5.10;87.10;;;;;;5012579;28;20026;-81
2023/02/18 04:14:06;;;;;;;2.05;1.92;;;5.20;83.10;;;;;;5012459;28;20025;-82
2023/02/18 04:16:31;;;;;;;3.33;1.50;;;5.20;81.20;;;;;;5030456;28;20025;-81
2023/02/18 04:18:57;;;;;;;2.40;1.20;;;5.20;79.10;;;;;;5032040;28;20551;-81
2023/02/18 04:21:23;;;;;;;119.15;49.40;;;5.20;78.60;;;;;;5031123;28;20018;-81
2023/02/18 04:23:49;;;;;;;58.95;26.52;;;5.20;76.40;;;;;;5030948;28;20022;-81
2023/02/18 04:26:14;;;;;;;38.05;11.45;;;5.10;77.70;;;;;;5031988;28;20030;-81
2023/02/18 04:28:40;;;;;;;5.43;3.05;;;5.10;76.50;;;;;;5031561;28;20083;-81
2023/02/18 04:31:05;;;;;;;3.70;1.63;;;5.00;76.60;;;;;;5032083;28;20052;-81
2023/02/18 04:33:31;;;;;;;116.78;50.17;;;5.00;77.20;;;;;;5031939;28;20021;-79
2023/02/18 04:35:56;;;;;;;9.95;4.53;;;4.90;77.10;;;;;;5030795;28;20025;-79
2023/02/18 04:38:22;;;;;;;7.18;2.72;;;4.90;77.50;;;;;;5032126;28;20080;-79
2023/02/18 04:40:48;;;;;;;7.95;3.30;;;4.80;77.20;;;;;;5031847;28;20471;-78
2023/02/18 04:43:14;;;;;;;20.52;7.65;;;4.70;78.30;;;;;;5031671;28;20025;-79
2023/02/18 04:45:39;;;;;;;23.25;7.72;;;4.70;78.20;;;;;;5032067;28;20025;-79
2023/02/18 04:48:05;;;;;;;23.77;6.28;;;4.60;79.20;;;;;;5030826;28;20520;-79
2023/02/18 04:50:31;;;;;;;15.45;4.32;;;4.60;79.50;;;;;;5032074;28;20025;-79
2023/02/18 04:52:56;;;;;;;7.20;2.88;;;4.60;80.10;;;;;;5031814;28;20478;-81
2023/02/18 04:55:22;;;;;;;31.80;14.00;;;4.70;78.10;;;;;;5030755;28;20050;-81
2023/02/18 04:57:47;;;;;;;4.18;2.00;;;4.80;75.20;;;;;;5031989;28;20066;-81
2023/02/18 05:00:16;;;;;;;6.00;2.22;;;4.80;74.70;;;;;;5031496;28;20072;-81
2023/02/18 05:02:41;;;;;;;4.63;1.98;;;4.80;74.20;;;;;;5030618;28;20026;-79
2023/02/18 05:05:07;;;;;;;3.58;1.85;;;4.80;74.50;;;;;;5030454;28;20110;-79
2023/02/18 05:07:33;;;;;;;18.17;7.22;;;4.70;74.30;;;;;;5031535;28;20441;-79
2023/02/18 05:09:59;;;;;;;31.15;7.97;;;4.70;74.60;;;;;;5030516;28;20029;-79
2023/02/18 05:12:24;;;;;;;5.53;1.63;;;4.70;74.90;;;;;;5031475;28;20021;-79
2023/02/18 05:14:50;;;;;;;25.73;7.07;;;4.60;75.30;;;;;;5031302;28;20050;-81
2023/02/18 05:17:15;;;;;;;5.18;2.47;;;4.60;75.40;;;;;;5031260;28;20386;-79
2023/02/18 05:19:41;;;;;;;13.93;6.03;;;4.60;76.30;;;;;;5030326;28;20102;-79
2023/02/18 05:22:07;;;;;;;264.73;90.70;;;4.60;76.60;;;;;;5029991;28;20030;-79
2023/02/18 05:24:33;;;;;;;20.80;6.55;;;4.50;76.30;;;;;;5031154;28;20136;-79
2023/02/18 05:26:59;;;;;;;15.57;4.28;;;4.50;75.50;;;;;;5031750;28;20055;-79
2023/02/18 05:29:24;;;;;;;12.85;3.38;;;4.60;74.60;;;;;;5029658;28;20058;-81
2023/02/18 05:31:50;;;;;;;16.50;4.47;;;4.50;74.20;;;;;;5031272;28;20033;-79
2023/02/18 05:34:17;;;;;;;71.85;29.88;;;4.50;73.70;;;;;;5029580;28;20497;-79
2023/02/18 05:36:42;;;;;;;15.55;5.15;;;4.50;72.80;;;;;;5031049;28;20532;-79
2023/02/18 05:39:08;;;;;;;3.30;1.73;;;4.50;72.70;;;;;;5030020;28;20025;-79
2023/02/18 05:41:33;;;;;;;5.78;1.95;;;4.60;71.10;;;;;;5030996;28;20033;-79
2023/02/18 05:46:43;;;;;;;2.78;2.00;;;4.60;69.50;;;;;;5031135;28;20033;-79
2023/02/18 05:49:09;;;;;;;18.42;7.60;;;4.60;69.40;;;;;;5030401;28;20041;-79
2023/02/18 05:51:34;;;;;;;19.08;8.88;;;4.60;68.90;;;;;;5030826;28;20014;-79
2023/02/18 05:54:00;;;;;;;12.23;3.75;;;4.70;67.80;;;;;;5029656;28;20091;-79
2023/02/18 05:56:26;;;;;;;14.30;3.60;;;4.60;68.30;;;;;;5031179;28;20032;-81
2023/02/18 05:58:51;;;;;;;11.05;3.70;;;4.60;67.90;;;;;;5029386;28;20032;-81
2023/02/18 06:01:17;;;;;;;21.85;4.85;;;4.60;67.10;;;;;;5031047;28;20067;-79
2023/02/18 06:03:43;;;;;;;5.70;1.77;;;4.50;67.30;;;;;;5030951;28;20096;-79
2023/02/18 06:06:09;;;;;;;5.03;1.73;;;4.50;66.80;;;;;;5029388;28;20028;-79
2023/02/18 06:08:34;;;;;;;11.52;4.43;;;4.60;66.80;;;;;;5029128;28;20033;-79
2023/02/18 06:11:00;;;;;;;3.50;2.03;;;4.50;66.70;;;;;;5030644;28;20032;-79
2023/02/18 06:13:25;;;;;;;5.15;1.98;;;4.50;66.00;;;;;;5029786;28;20347;-79
2023/02/18 06:15:51;;;;;;;7.47;1.90;;;4.60;65.90;;;;;;5030707;28;20106;-79
2023/02/18 06:18:17;;;;;;;1.70;1.50;;;4.60;66.00;;;;;;5029177;28;20071;-79
2023/02/18 06:20:43;;;;;;;4.72;2.55;;;4.60;66.40;;;;;;5030178;28;20025;-79
2023/02/18 06:23:08;;;;;;;9.32;2.90;;;4.60;66.10;;;;;;5030227;28;20021;-79
2023/02/18 06:25:34;;;;;;;9.15;4.00;;;4.60;66.30;;;;;;5030356;28;20021;-79
2023/02/18 06:27:59;;;;;;;32.47;11.25;;;4.60;66.40;;;;;;5030017;28;20045;-80
2023/02/18 06:30:25;;;;;;;16.30;6.45;;;4.70;66.30;;;;;;5030675;28;20458;-79
2023/02/18 06:32:51;;;;;;;11.40;4.68;;;4.70;66.70;;;;;;5030282;28;20432;-79
2023/02/18 06:35:16;;;;;;;20.05;7.60;;;4.80;66.10;;;;;;5030427;28;20021;-79
2023/02/18 06:37:43;;;;;;;352.27;146.82;;;4.80;65.90;;;;;;5030208;28;20030;-79
2023/02/18 06:40:09;;;;;;;10.75;5.03;;;4.80;66.20;;;;;;5029234;28;20053;-79
2023/02/18 06:42:35;;;;;;;4.93;2.50;;;4.90;65.80;;;;;;5030169;28;20422;-79
2023/02/18 06:45:00;;;;;;;58.85;27.52;;;5.00;63.80;;;;;;5029276;28;20082;-79
2023/02/18 06:47:26;;;;;;;24.52;10.98;;;5.00;63.80;;;;;;5029962;28;20037;-79
2023/02/18 06:49:52;;;;;;;23.13;9.43;;;5.00;63.80;;;;;;5030016;28;20034;-79
2023/02/18 06:52:17;;;;;;;12.10;4.22;;;5.00;63.40;;;;;;5027740;28;20490;-79
2023/02/18 06:54:43;;;;;;;28.35;11.55;;;5.00;62.70;;;;;;5010024;28;20064;-79
2023/02/18 06:57:08;;;;;;;3.60;1.73;;;5.10;62.50;;;;;;5008817;28;20041;-79
2023/02/18 06:59:34;;;;;;;12.68;5.07;;;5.20;61.70;;;;;;5009940;28;20022;-79
2023/02/18 07:02:00;;;;;;;49.65;21.63;;;5.30;61.20;;;;;;5023318;28;20034;-79
2023/02/18 07:04:25;;;;;;;16.35;6.85;;;5.40;62.10;;;;;;5033249;28;20026;-79
2023/02/18 07:06:51;;;;;;;7.45;3.08;;;5.60;62.10;;;;;;5032279;28;20025;-78
2023/02/18 07:09:16;;;;;;;69.70;26.88;;;5.70;60.70;;;;;;5032976;28;20124;-80
2023/02/18 07:11:42;;;;;;;24.60;10.00;;;5.80;59.90;;;;;;5032853;28;20029;-79
2023/02/18 07:14:08;;;;;;;5.70;2.58;;;5.80;60.00;;;;;;5031869;28;20466;-79
2023/02/18 07:16:33;;;;;;;9.80;3.03;;;5.90;60.40;;;;;;5032807;28;20038;-80
2023/02/18 07:18:59;;;;;;;7.22;3.67;;;5.90;59.40;;;;;;5031906;28;20083;-79
2023/02/18 07:21:25;;;;;;;8.73;3.33;;;5.90;58.70;;;;;;5033393;28;20029;-79
2023/02/18 07:23:50;;;;;;;4.43;2.55;;;5.90;59.70;;;;;;5020220;28;20033;-79
2023/02/18 07:26:16;;;;;;;12.30;4.20;;;5.90;59.30;;;;;;5013099;28;20105;-79
2023/02/18 07:28:42;;;;;;;4.30;1.80;;;5.80;58.50;;;;;;5012860;28;20489;-79
2023/02/18 07:31:08;;;;;;;6.55;3.08;;;5.80;59.70;;;;;;5013273;28;20034;-79
2023/02/18 07:33:34;;;;;;;34.25;16.15;;;5.80;59.80;;;;;;5028029;28;20018;-79
2023/02/18 07:36:01;;;;;;;6.75;3.20;;;5.80;59.60;;;;;;5012828;28;20018;-79
2023/02/18 07:38:27;;;;;;;3.33;1.27;;;5.80;59.00;;;;;;5012630;28;20011;-79
2023/02/18 07:40:54;;;;;;;3.80;1.75;;;5.80;59.10;;;;;;5012925;28;20058;-80
2023/02/18 07:43:20;;;;;;;3.85;2.08;;;5.70;59.70;;;;;;5011748;28;20064;-79
2023/02/18 07:45:46;;;;;;;7.75;2.63;;;5.70;59.30;;;;;;5028350;28;20022;-79
2023/02/18 07:48:12;;;;;;;6.03;2.97;;;5.80;59.20;;;;;;5012519;28;20034;-79
2023/02/18 07:50:43;;;;;;;3.78;2.17;;;5.70;59.30;;;;;;5011516;28;20482;-79
2023/02/18 07:53:11;;;;;;;4.35;2.03;;;5.80;59.20;;;;;;5012904;28;20139;-82
2023/02/18 07:55:49;;;;;;;4.78;2.90;;;5.90;59.50;;;;;;5027802;28;20394;-82
2023/02/18 07:58:26;;;;;;;21.15;9.60;;;5.90;58.80;;;;;;5011070;28;20023;-80
2023/02/18 08:00:53;;;;;;;5.60;2.15;;;6.00;58.70;;;;;;5014001;28;20021;-80
2023/02/18 08:03:21;;;;;;;3.65;2.00;;;6.00;58.70;;;;;;5012442;28;20018;-80
2023/02/18 08:05:49;;;;;;;6.45;2.83;;;6.00;58.80;;;;;;5011910;28;20037;-80
2023/02/18 08:08:19;;;;;;;4.03;2.65;;;6.10;58.10;;;;;;5012048;28;20030;-80
2023/02/18 08:10:44;;;;;;;13.93;5.97;;;6.10;57.90;;;;;;5012082;28;20360;-79
2023/02/18 08:13:10;;;;;;;2.60;1.98;;;6.10;58.40;;;;;;5010611;28;20036;-79
2023/02/18 08:15:36;;;;;;;4.10;2.17;;;6.20;58.10;;;;;;5011123;28;20026;-80
2023/02/18 08:18:02;;;;;;;6.00;3.35;;;6.20;57.40;;;;;;5011937;28;20049;-80
2023/02/18 08:20:28;;;;;;;2.13;1.83;;;6.30;58.20;;;;;;5017097;28;20062;-80
2023/02/18 08:22:54;;;;;;;33.45;13.70;;;6.40;58.10;;;;;;5031367;28;20447;-80
2023/02/18 08:25:19;;;;;;;8.23;3.05;;;6.40;58.70;;;;;;5031555;28;20101;-80
2023/02/18 08:27:45;;;;;;;13.85;7.13;;;6.40;57.40;;;;;;5031057;28;20046;-80
2023/02/18 08:30:11;;;;;;;3.92;2.05;;;6.40;57.10;;;;;;5030190;28;20117;-79
2023/02/18 08:32:37;;;;;;;3.08;1.40;;;6.40;57.20;;;;;;5012899;28;20025;-79
2023/02/18 08:35:06;;;;;;;8.35;3.80;;;6.50;56.50;;;;;;5012033;28;20030;-79
2023/02/18 08:37:32;;;;;;;3.30;1.88;;;6.50;56.70;;;;;;5031042;28;20074;-80
2023/02/18 08:39:58;;;;;;;8.95;5.13;;;6.60;57.00;;;;;;5030918;28;20432;-80
2023/02/18 08:42:23;;;;;;;3.47;1.50;;;6.60;57.20;;;;;;5029807;28;20086;-80
2023/02/18 08:44:49;;;;;;;3.53;2.10;;;6.60;57.20;;;;;;5031138;28;20033;-79
2023/02/18 08:47:15;;;;;;;19.38;8.00;;;6.60;56.80;;;;;;5031236;28;20021;-79
2023/02/18 08:49:40;;;;;;;21.45;8.23;;;6.60;56.00;;;;;;5029771;28;20064;-80
2023/02/18 08:52:06;;;;;;;45.67;17.55;;;6.70;56.60;;;;;;5029961;28;20018;-80
2023/02/18 08:54:32;;;;;;;63.60;21.20;;;6.70;56.70;;;;;;5029695;28;20041;-80
2023/02/18 08:56:57;;;;;;;77.45;24.98;;;6.70;56.60;;;;;;5029899;28;20018;-80
2023/02/18 08:59:24;;;;;;;36.17;15.85;;;6.70;56.20;;;;;;5029698;28;20022;-80
2023/02/18 09:01:49;;;;;;;74.28;26.17;;;6.80;55.70;;;;;;5030793;28;20390;-80
2023/02/18 09:04:16;;;;;;;19.65;7.13;;;6.90;57.20;;;;;;5029907;28;20018;-79
2023/02/18 09:06:42;;;;;;;33.30;13.45;;;6.90;56.20;;;;;;5030873;28;20022;-79
2023/02/18 09:09:07;;;;;;;29.17;12.70;;;7.00;57.20;;;;;;5027142;28;20508;-80
2023/02/18 09:11:33;;;;;;;25.60;10.65;;;7.00;56.30;;;;;;5030386;28;20052;-80
2023/02/18 09:13:59;;;;;;;23.35;10.27;;;7.00;55.90;;;;;;5030987;28;20082;-80
2023/02/18 09:16:27;;;;;;;13.88;7.28;;;7.00;56.50;;;;;;5030580;28;20024;-80
2023/02/18 09:18:52;;;;;;;23.40;12.70;;;7.10;56.10;;;;;;5029420;28;20029;-80
2023/02/18 09:21:19;;;;;;;34.97;15.50;;;7.00;54.70;;;;;;5030757;28;20047;-80
2023/02/18 09:23:45;;;;;;;36.38;14.35;;;7.00;56.00;;;;;;5028566;28;20021;-80
2023/02/18 09:26:13;;;;;;;45.83;19.75;;;7.00;55.90;;;;;;5019237;28;20072;-80
2023/02/18 09:28:39;;;;;;;75.70;33.05;;;6.90;55.40;;;;;;5010650;28;20054;-80
2023/02/18 09:31:10;;;;;;;85.13;35.72;;;6.90;56.30;;;;;;5010534;28;20156;-80
2023/02/18 09:33:38;;;;;;;156.15;61.20;;;6.90;56.00;;;;;;5009786;28;20467;-80
2023/02/18 09:36:04;;;;;;;98.05;37.72;;;6.90;56.50;;;;;;5010510;28;20021;-80
2023/02/18 09:38:30;;;;;;;75.57;30.13;;;6.80;55.60;;;;;;5012162;28;21589;-80
2023/02/18 09:40:57;;;;;;;73.10;28.08;;;6.80;56.20;;;;;;5019241;28;20054;-80
2023/02/18 09:43:37;;;;;;;129.30;49.20;;;6.80;55.90;;;;;;5092359;28;20020;-79
2023/02/18 09:46:12;;;;;;;83.57;30.58;;;6.80;56.50;;;;;;5092354;28;20487;-82
2023/02/18 09:48:39;;;;;;;56.55;21.27;;;6.80;56.30;;;;;;5092420;28;20040;-80
2023/02/18 09:51:05;;;;;;;48.00;19.33;;;6.80;56.60;;;;;;5092375;28;20020;-80
2023/02/18 09:53:30;;;;;;;42.78;17.92;;;6.80;56.80;;;;;;5092818;28;20389;-80
2023/02/18 09:55:57;;;;;;;82.05;31.00;;;6.90;57.10;;;;;;5091348;28;20020;-82
2023/02/18 09:58:33;;;;;;;46.03;19.38;;;6.90;56.70;;;;;;5076190;28;20439;-81
2023/02/18 10:01:12;;;;;;;41.33;15.82;;;7.00;57.90;;;;;;5088831;28;20077;-82
2023/02/18 10:03:39;;;;;;;52.55;20.40;;;7.10;56.50;;;;;;5088766;28;20071;-82
2023/02/18 10:06:11;;;;;;;28.98;10.93;;;7.20;57.60;;;;;;5091221;28;20039;-79
2023/02/18 10:08:44;;;;;;;45.37;17.90;;;7.20;57.50;;;;;;5087427;28;20040;-79
2023/02/18 10:11:28;;;;;;;37.17;16.20;;;7.30;58.60;;;;;;5087995;28;20341;-80
2023/02/18 10:13:54;;;;;;;27.30;11.02;;;7.40;58.40;;;;;;5089942;28;20119;-80
2023/02/18 10:16:22;;;;;;;31.38;12.70;;;7.40;58.10;;;;;;5090442;28;20522;-80
2023/02/18 10:19:03;;;;;;;24.15;10.00;;;7.40;58.00;;;;;;5087905;28;20059;-83
2023/02/18 10:21:34;;;;;;;24.20;10.75;;;7.30;58.40;;;;;;5090995;28;20028;-83
2023/02/18 10:24:19;;;;;;;18.63;7.75;;;7.30;58.60;;;;;;5090273;28;20039;-83
2023/02/18 10:26:45;;;;;;;16.20;8.13;;;7.30;58.20;;;;;;5090038;28;20054;-83
2023/02/18 10:29:17;;;;;;;26.08;10.20;;;7.20;58.20;;;;;;5088930;28;20512;-82
2023/02/18 10:31:54;;;;;;;15.95;7.10;;;7.20;58.30;;;;;;5088659;28;20354;-82
2023/02/18 10:34:40;;;;;;;23.92;9.75;;;7.20;57.90;;;;;;5090089;28;20259;-82
2023/02/18 10:37:11;;;;;;;12.52;6.50;;;7.30;58.60;;;;;;5098275;28;20491;-82
2023/02/18 10:39:43;;;;;;;14.00;6.82;;;7.30;59.30;;;;;;5094926;28;20093;-83
2023/02/18 10:42:46;;;;;;;11.20;5.18;;;7.30;58.80;;;;;;5094576;28;20024;-82
2023/02/18 10:45:25;;;;;;;14.23;6.72;;;7.40;58.60;;;;;;5086019;28;20053;-83
2023/02/18 10:48:25;;;;;;;8.07;4.28;;;7.40;58.90;;;;;;5094907;28;20020;-83
2023/02/18 10:50:51;;;;;;;12.88;5.95;;;7.40;58.80;;;;;;5094910;28;20036;-82
2023/02/18 10:53:34;;;;;;;9.45;5.35;;;7.50;59.20;;;;;;5094541;28;20023;-82
2023/02/18 10:56:00;;;;;;;7.93;4.20;;;7.50;59.50;;;;;;5094631;28;20485;-83
2023/02/18 10:58:27;;;;;;;9.32;5.03;;;7.40;60.10;;;;;;5096234;28;20028;-82
2023/02/18 11:00:53;;;;;;;5.00;2.55;;;7.40;61.20;;;;;;5095683;28;20040;-82
2023/02/18 11:03:23;;;;;;;5.57;2.60;;;7.30;61.20;;;;;;5093588;28;20028;-82
2023/02/18 11:05:52;;;;;;;2.78;1.80;;;7.20;61.50;;;;;;5095249;28;20035;-83
2023/02/18 11:08:25;;;;;;;1.98;1.52;;;7.10;62.00;;;;;;5094619;28;20032;-83
2023/02/18 11:10:52;;;;;;;1.13;1.02;;;6.90;63.50;;;;;;5094421;28;20032;-82
2023/02/18 11:13:31;;;;;;;6.68;1.60;;;6.70;66.30;;;;;;5094652;28;20471;-80
2023/02/18 11:16:04;;;;;;;1.65;1.35;;;6.50;70.40;;;;;;5094961;28;20040;-81
2023/02/18 11:18:36;;;;;;;;;;;6.30;74.00;;;;;;5095172;28;20024;-81
2023/02/18 11:21:10;;;;;;;2.03;1.70;;;6.20;77.70;;;;;;5094930;28;19904;-81
2023/02/18 11:23:50;;;;;;;7.90;2.88;;;6.00;83.00;;;;;;5093901;28;20024;-81
2023/02/18 11:26:20;;;;;;;5.63;2.25;;;5.90;96.00;;;;;;5093589;28;20040;-81
2023/02/18 11:28:58;;;;;;;4.07;2.47;;;5.70;99.90;;;;;;5094848;28;20119;-81
2023/02/18 11:31:29;;;;;;;3.85;2.20;;;5.40;99.90;;;;;;5094933;28;20036;-81
2023/02/18 11:33:59;;;;;;;4.28;2.40;;;5.30;99.90;;;;;;5094269;28;20020;-82
2023/02/18 11:36:31;;;;;;;6.25;3.28;;;5.10;99.90;;;;;;5095272;28;20032;-81
2023/02/18 11:39:03;;;;;;;69.45;30.55;;;5.00;99.90;;;;;;5101459;28;20473;-81
2023/02/18 11:41:39;;;;;;;7.32;4.63;;;5.00;99.90;;;;;;5094858;28;20098;-82
2023/02/18 11:44:26;;;;;;;24.83;12.45;;;4.90;99.90;;;;;;5093008;28;20476;-82
2023/02/18 11:46:57;;;;;;;44.63;18.65;;;4.90;99.90;;;;;;5094463;28;20443;-80
2023/02/18 11:49:23;;;;;;;6.63;3.33;;;4.90;99.90;;;;;;5093777;28;20047;-82
2023/02/18 11:51:50;;;;;;;19.60;9.25;;;4.80;99.90;;;;;;5093653;28;20040;-82
2023/02/18 11:54:30;;;;;;;35.78;17.45;;;4.80;99.90;;;;;;5094414;28;20384;-82
2023/02/18 11:57:05;;;;;;;5.80;3.78;;;4.70;99.90;;;;;;5094690;28;20115;-82
2023/02/18 11:59:37;;;;;;;12.07;7.20;;;4.70;99.90;;;;;;5093272;28;20032;-82
2023/02/18 12:02:09;;;;;;;30.93;14.47;;;4.80;99.90;;;;;;5093457;28;20065;-82
2023/02/18 12:05:11;;;;;;;5.25;4.78;;;4.80;99.90;;;;;;5093549;28;20039;-82
2023/02/18 12:07:55;;;;;;;34.50;16.33;;;4.80;99.90;;;;;;5093975;28;20032;-83
2023/02/18 12:10:30;;;;;;;20.65;9.05;;;4.90;99.90;;;;;;5094061;28;20047;-82
2023/02/18 12:13:23;;;;;;;63.97;30.80;;;5.00;99.90;;;;;;5093231;28;20081;-81
2023/02/18 12:16:02;;;;;;;10.02;5.75;;;5.10;99.90;;;;;;5092794;28;20036;-83
2023/02/18 12:19:01;;;;;;;7.50;4.95;;;5.20;99.90;;;;;;5093733;28;20024;-82
2023/02/18 12:21:54;;;;;;;12.57;7.65;;;5.20;99.90;;;;;;5093957;28;20032;-81
2023/02/18 12:24:38;;;;;;;12.30;5.55;;;5.30;99.90;;;;;;5092433;28;20496;-82
2023/02/18 12:27:44;;;;;;;9.32;5.85;;;5.40;99.90;;;;;;5092809;28;20047;-82
2023/02/18 12:30:26;;;;;;;13.48;8.45;;;5.50;99.90;;;;;;5056156;28;20045;-83
2023/02/18 12:33:10;;;;;;;12.32;6.43;;;5.60;99.90;;;;;;5033858;28;20025;-83
2023/02/18 12:35:59;;;;;;;24.58;16.33;;;5.60;99.90;;;;;;5052714;28;20033;-83
2023/02/18 12:38:40;;;;;;;9.50;5.53;;;5.70;99.90;;;;;;5066086;28;20025;-83
2023/02/18 12:41:45;;;;;;;39.80;19.98;;;5.60;99.90;;;;;;5052054;28;20035;-82
2023/02/18 12:44:23;;;;;;;12.10;6.97;;;5.70;99.90;;;;;;5052227;28;20378;-82
2023/02/18 12:47:19;;;;;;;14.00;8.73;;;5.60;99.90;;;;;;5051728;28;20429;-82
2023/02/18 12:50:10;;;;;;;20.05;11.00;;;5.50;99.90;;;;;;5053175;28;20045;-82
2023/02/18 12:52:53;;;;;;;18.15;9.00;;;5.50;99.90;;;;;;5051825;28;20094;-82
2023/02/18 12:55:36;;;;;;;27.88;13.88;;;5.50;99.90;;;;;;5049856;28;20098;-82
2023/02/18 12:58:24;;;;;;;26.23;16.20;;;5.50;99.90;;;;;;5051940;28;20116;-82
2023/02/18 13:00:53;;;;;;;13.85;9.43;;;5.50;99.90;;;;;;5051246;28;20087;-82
2023/02/18 13:03:40;;;;;;;20.42;10.70;;;5.40;99.90;;;;;;5052428;28;20021;-82
2023/02/18 13:06:41;;;;;;;25.30;12.15;;;5.40;99.90;;;;;;5051502;28;20044;-82
2023/02/18 13:09:10;;;;;;;33.53;16.25;;;5.30;99.90;;;;;;5050968;28;20402;-82